sensor_id;sensor_type;location;lat;lon;timestamp;P1;durP1;ratioP1;P2;durP2;ratioP2
11151;SDS011;5630;49.342;10.802;2022-09-09T00:04:05;3.77;;;2.00;;
11151;SDS011;5630;49.342;10.802;2022-09-09T00:06:52;5.70;;;2.10;;
11151;SDS011;5630;49.342;10.802;2022-09-09T00:09:44;7.10;;;2.23;;
11151;SDS011;5630;49.342;10.802;2022-09-09T00:15:05;6.53;;;2.10;;
11151;SDS011;5630;49.342;10.802;2022-09-09T00:17:43;4.03;;;1.70;;
11151;SDS011;5630;49.342;10.802;2022-09-09T00:20:16;6.30;;;1.90;;
11151;SDS011;5630;49.342;10.802;2022-09-09T00:23:05;7.23;;;1.80;;
11151;SDS011;5630;49.342;10.802;2022-09-09T00:25:40;4.50;;;2.13;;
11151;SDS011;5630;49.342;10.802;2022-09-09T00:28:22;3.17;;;1.60;;
11151;SDS011;5630;49.342;10.802;2022-09-09T00:30:50;6.30;;;1.90;;
11151;SDS011;5630;49.342;10.802;2022-09-09T00:33:17;3.83;;;2.17;;
11151;SDS011;5630;49.342;10.802;2022-09-09T00:35:48;3.57;;;2.00;;
11151;SDS011;5630;49.342;10.802;2022-09-09T00:40:50;4.77;;;2.27;;
11151;SDS011;5630;49.342;10.802;2022-09-09T00:43:29;8.00;;;2.53;;
11151;SDS011;5630;49.342;10.802;2022-09-09T00:57:26;6.10;;;1.97;;
11151;SDS011;5630;49.342;10.802;2022-09-09T00:59:58;4.47;;;1.87;;
11151;SDS011;5630;49.342;10.802;2022-09-09T01:05:20;5.17;;;1.90;;
11151;SDS011;5630;49.342;10.802;2022-09-09T01:08:00;3.23;;;1.80;;
11151;SDS011;5630;49.342;10.802;2022-09-09T01:13:25;3.83;;;1.73;;
11151;SDS011;5630;49.342;10.802;2022-09-09T01:15:55;5.90;;;1.90;;
11151;SDS011;5630;49.342;10.802;2022-09-09T01:18:26;3.50;;;1.70;;
11151;SDS011;5630;49.342;10.802;2022-09-09T01:26:16;6.30;;;1.60;;
11151;SDS011;5630;49.342;10.802;2022-09-09T01:28:51;5.93;;;1.90;;
11151;SDS011;5630;49.342;10.802;2022-09-09T01:31:19;3.40;;;1.87;;
11151;SDS011;5630;49.342;10.802;2022-09-09T01:33:47;8.43;;;1.90;;
11151;SDS011;5630;49.342;10.802;2022-09-09T01:36:19;4.97;;;2.00;;
11151;SDS011;5630;49.342;10.802;2022-09-09T01:38:46;4.27;;;2.07;;
11151;SDS011;5630;49.342;10.802;2022-09-09T01:41:11;6.33;;;2.00;;
11151;SDS011;5630;49.342;10.802;2022-09-09T01:43:37;4.63;;;1.87;;
11151;SDS011;5630;49.342;10.802;2022-09-09T01:46:02;5.57;;;1.87;;
11151;SDS011;5630;49.342;10.802;2022-09-09T01:48:29;7.47;;;2.07;;
11151;SDS011;5630;49.342;10.802;2022-09-09T01:50:55;3.23;;;1.70;;
11151;SDS011;5630;49.342;10.802;2022-09-09T01:53:21;8.47;;;1.97;;
11151;SDS011;5630;49.342;10.802;2022-09-09T01:59:09;4.83;;;1.50;;
11151;SDS011;5630;49.342;10.802;2022-09-09T02:01:55;6.33;;;1.80;;
11151;SDS011;5630;49.342;10.802;2022-09-09T02:04:42;2.60;;;1.60;;
11151;SDS011;5630;49.342;10.802;2022-09-09T02:07:39;5.50;;;2.03;;
11151;SDS011;5630;49.342;10.802;2022-09-09T02:13:11;5.13;;;2.00;;
11151;SDS011;5630;49.342;10.802;2022-09-09T02:18:30;5.37;;;1.83;;
11151;SDS011;5630;49.342;10.802;2022-09-09T02:21:09;4.27;;;1.73;;
11151;SDS011;5630;49.342;10.802;2022-09-09T02:23:38;5.87;;;2.03;;
11151;SDS011;5630;49.342;10.802;2022-09-09T02:26:06;4.80;;;1.90;;
11151;SDS011;5630;49.342;10.802;2022-09-09T02:28:35;6.73;;;2.00;;
11151;SDS011;5630;49.342;10.802;2022-09-09T02:31:03;7.30;;;2.13;;
11151;SDS011;5630;49.342;10.802;2022-09-09T02:33:31;3.87;;;1.80;;
11151;SDS011;5630;49.342;10.802;2022-09-09T02:36:03;6.13;;;1.93;;
11151;SDS011;5630;49.342;10.802;2022-09-09T02:38:32;8.47;;;2.10;;
11151;SDS011;5630;49.342;10.802;2022-09-09T02:41:01;4.20;;;1.80;;
11151;SDS011;5630;49.342;10.802;2022-09-09T02:43:31;9.07;;;2.10;;
11151;SDS011;5630;49.342;10.802;2022-09-09T02:46:03;2.97;;;1.60;;
11151;SDS011;5630;49.342;10.802;2022-09-09T02:56:39;10.70;;;2.37;;
11151;SDS011;5630;49.342;10.802;2022-09-09T02:59:09;3.90;;;2.00;;
11151;SDS011;5630;49.342;10.802;2022-09-09T03:01:36;5.87;;;2.07;;
11151;SDS011;5630;49.342;10.802;2022-09-09T03:04:05;8.17;;;2.03;;
11151;SDS011;5630;49.342;10.802;2022-09-09T03:06:31;4.97;;;2.00;;
11151;SDS011;5630;49.342;10.802;2022-09-09T03:08:57;5.73;;;1.97;;
11151;SDS011;5630;49.342;10.802;2022-09-09T03:11:25;6.53;;;2.10;;
11151;SDS011;5630;49.342;10.802;2022-09-09T03:13:52;7.50;;;2.10;;
11151;SDS011;5630;49.342;10.802;2022-09-09T03:16:20;4.57;;;1.97;;
11151;SDS011;5630;49.342;10.802;2022-09-09T03:18:49;5.13;;;2.20;;
11151;SDS011;5630;49.342;10.802;2022-09-09T03:21:15;4.50;;;2.00;;
11151;SDS011;5630;49.342;10.802;2022-09-09T03:23:40;5.27;;;1.90;;
11151;SDS011;5630;49.342;10.802;2022-09-09T03:26:06;9.00;;;2.47;;
11151;SDS011;5630;49.342;10.802;2022-09-09T03:28:32;7.43;;;2.40;;
11151;SDS011;5630;49.342;10.802;2022-09-09T03:31:07;6.47;;;2.20;;
11151;SDS011;5630;49.342;10.802;2022-09-09T03:33:35;6.20;;;2.50;;
11151;SDS011;5630;49.342;10.802;2022-09-09T03:36:04;7.10;;;2.40;;
11151;SDS011;5630;49.342;10.802;2022-09-09T03:38:31;6.67;;;2.10;;
11151;SDS011;5630;49.342;10.802;2022-09-09T03:40:57;5.60;;;1.70;;
11151;SDS011;5630;49.342;10.802;2022-09-09T03:43:23;4.63;;;2.07;;
11151;SDS011;5630;49.342;10.802;2022-09-09T03:45:50;8.00;;;2.17;;
11151;SDS011;5630;49.342;10.802;2022-09-09T03:48:16;3.93;;;1.73;;
11151;SDS011;5630;49.342;10.802;2022-09-09T03:50:49;5.80;;;1.50;;
11151;SDS011;5630;49.342;10.802;2022-09-09T03:53:16;3.67;;;1.47;;
11151;SDS011;5630;49.342;10.802;2022-09-09T03:55:48;5.53;;;1.83;;
11151;SDS011;5630;49.342;10.802;2022-09-09T03:58:16;3.97;;;1.60;;
11151;SDS011;5630;49.342;10.802;2022-09-09T04:00:43;3.57;;;1.57;;
11151;SDS011;5630;49.342;10.802;2022-09-09T04:03:18;4.00;;;1.80;;
11151;SDS011;5630;49.342;10.802;2022-09-09T04:05:43;3.47;;;1.70;;
11151;SDS011;5630;49.342;10.802;2022-09-09T04:08:09;4.10;;;1.53;;
11151;SDS011;5630;49.342;10.802;2022-09-09T04:10:35;3.90;;;1.80;;
11151;SDS011;5630;49.342;10.802;2022-09-09T04:13:02;6.10;;;1.70;;
11151;SDS011;5630;49.342;10.802;2022-09-09T04:15:28;3.50;;;1.60;;
11151;SDS011;5630;49.342;10.802;2022-09-09T04:17:55;3.23;;;1.80;;
11151;SDS011;5630;49.342;10.802;2022-09-09T04:20:20;3.70;;;1.80;;
11151;SDS011;5630;49.342;10.802;2022-09-09T04:22:47;6.27;;;1.67;;
11151;SDS011;5630;49.342;10.802;2022-09-09T04:25:13;5.43;;;1.83;;
11151;SDS011;5630;49.342;10.802;2022-09-09T04:27:38;7.50;;;2.00;;
11151;SDS011;5630;49.342;10.802;2022-09-09T04:30:05;7.93;;;1.97;;
11151;SDS011;5630;49.342;10.802;2022-09-09T04:32:32;6.33;;;1.73;;
11151;SDS011;5630;49.342;10.802;2022-09-09T04:34:58;11.43;;;1.80;;
11151;SDS011;5630;49.342;10.802;2022-09-09T04:37:24;8.20;;;2.07;;
11151;SDS011;5630;49.342;10.802;2022-09-09T04:39:50;3.17;;;1.77;;
11151;SDS011;5630;49.342;10.802;2022-09-09T04:42:15;6.03;;;1.87;;
11151;SDS011;5630;49.342;10.802;2022-09-09T04:44:42;6.67;;;1.87;;
11151;SDS011;5630;49.342;10.802;2022-09-09T04:47:08;5.70;;;1.90;;
11151;SDS011;5630;49.342;10.802;2022-09-09T04:49:34;6.67;;;2.07;;
11151;SDS011;5630;49.342;10.802;2022-09-09T04:52:01;6.17;;;1.97;;
11151;SDS011;5630;49.342;10.802;2022-09-09T04:54:28;3.67;;;1.97;;
11151;SDS011;5630;49.342;10.802;2022-09-09T04:56:54;6.53;;;2.00;;
11151;SDS011;5630;49.342;10.802;2022-09-09T04:59:20;3.67;;;1.90;;
11151;SDS011;5630;49.342;10.802;2022-09-09T05:01:46;4.13;;;2.03;;
11151;SDS011;5630;49.342;10.802;2022-09-09T05:04:13;5.20;;;1.90;;
11151;SDS011;5630;49.342;10.802;2022-09-09T05:06:40;7.87;;;1.97;;
11151;SDS011;5630;49.342;10.802;2022-09-09T05:09:05;4.67;;;1.80;;
11151;SDS011;5630;49.342;10.802;2022-09-09T05:11:31;3.70;;;1.70;;
11151;SDS011;5630;49.342;10.802;2022-09-09T05:13:59;5.43;;;2.00;;
11151;SDS011;5630;49.342;10.802;2022-09-09T05:16:24;5.50;;;2.10;;
11151;SDS011;5630;49.342;10.802;2022-09-09T05:18:51;4.03;;;1.73;;
11151;SDS011;5630;49.342;10.802;2022-09-09T05:21:17;4.77;;;1.90;;
11151;SDS011;5630;49.342;10.802;2022-09-09T05:23:44;4.20;;;1.90;;
11151;SDS011;5630;49.342;10.802;2022-09-09T05:26:11;3.87;;;2.00;;
11151;SDS011;5630;49.342;10.802;2022-09-09T05:28:38;5.27;;;1.63;;
11151;SDS011;5630;49.342;10.802;2022-09-09T05:31:05;6.83;;;2.37;;
11151;SDS011;5630;49.342;10.802;2022-09-09T05:33:33;4.67;;;1.97;;
11151;SDS011;5630;49.342;10.802;2022-09-09T05:36:10;5.53;;;2.20;;
11151;SDS011;5630;49.342;10.802;2022-09-09T05:38:40;3.80;;;2.30;;
11151;SDS011;5630;49.342;10.802;2022-09-09T05:41:06;4.97;;;1.80;;
11151;SDS011;5630;49.342;10.802;2022-09-09T05:43:33;7.10;;;2.67;;
11151;SDS011;5630;49.342;10.802;2022-09-09T05:48:29;7.27;;;2.20;;
11151;SDS011;5630;49.342;10.802;2022-09-09T05:51:16;5.40;;;2.23;;
11151;SDS011;5630;49.342;10.802;2022-09-09T05:53:44;5.20;;;2.00;;
11151;SDS011;5630;49.342;10.802;2022-09-09T05:56:14;4.83;;;1.83;;
11151;SDS011;5630;49.342;10.802;2022-09-09T05:58:45;4.17;;;2.03;;
11151;SDS011;5630;49.342;10.802;2022-09-09T06:03:47;4.10;;;2.03;;
11151;SDS011;5630;49.342;10.802;2022-09-09T06:06:14;9.27;;;2.50;;
11151;SDS011;5630;49.342;10.802;2022-09-09T06:08:45;6.33;;;2.17;;
11151;SDS011;5630;49.342;10.802;2022-09-09T06:11:13;8.10;;;1.97;;
11151;SDS011;5630;49.342;10.802;2022-09-09T06:13:43;5.60;;;2.13;;
11151;SDS011;5630;49.342;10.802;2022-09-09T06:16:13;3.83;;;1.70;;
11151;SDS011;5630;49.342;10.802;2022-09-09T06:18:40;4.53;;;1.83;;
11151;SDS011;5630;49.342;10.802;2022-09-09T06:21:08;3.07;;;1.90;;
11151;SDS011;5630;49.342;10.802;2022-09-09T06:23:38;6.57;;;2.10;;
11151;SDS011;5630;49.342;10.802;2022-09-09T06:26:06;5.10;;;2.13;;
11151;SDS011;5630;49.342;10.802;2022-09-09T06:28:34;3.00;;;1.80;;
11151;SDS011;5630;49.342;10.802;2022-09-09T06:31:01;4.23;;;1.90;;
11151;SDS011;5630;49.342;10.802;2022-09-09T06:33:32;4.60;;;2.30;;
11151;SDS011;5630;49.342;10.802;2022-09-09T06:36:06;6.87;;;2.07;;
11151;SDS011;5630;49.342;10.802;2022-09-09T06:38:35;3.47;;;2.03;;
11151;SDS011;5630;49.342;10.802;2022-09-09T06:41:00;6.03;;;2.13;;
11151;SDS011;5630;49.342;10.802;2022-09-09T06:43:26;5.00;;;2.00;;
11151;SDS011;5630;49.342;10.802;2022-09-09T06:46:03;6.33;;;1.80;;
11151;SDS011;5630;49.342;10.802;2022-09-09T06:48:30;7.93;;;1.90;;
11151;SDS011;5630;49.342;10.802;2022-09-09T06:53:38;3.93;;;1.53;;
11151;SDS011;5630;49.342;10.802;2022-09-09T06:56:24;6.27;;;1.80;;
11151;SDS011;5630;49.342;10.802;2022-09-09T06:58:58;2.70;;;1.60;;
11151;SDS011;5630;49.342;10.802;2022-09-09T07:01:29;3.50;;;1.60;;
11151;SDS011;5630;49.342;10.802;2022-09-09T07:03:56;3.53;;;1.63;;
11151;SDS011;5630;49.342;10.802;2022-09-09T07:06:31;4.23;;;1.73;;
11151;SDS011;5630;49.342;10.802;2022-09-09T07:08:58;3.77;;;1.20;;
11151;SDS011;5630;49.342;10.802;2022-09-09T07:11:29;7.40;;;1.70;;
11151;SDS011;5630;49.342;10.802;2022-09-09T07:13:56;7.30;;;1.70;;
11151;SDS011;5630;49.342;10.802;2022-09-09T07:16:23;4.10;;;1.70;;
11151;SDS011;5630;49.342;10.802;2022-09-09T07:18:49;3.53;;;1.33;;
11151;SDS011;5630;49.342;10.802;2022-09-09T07:21:16;6.60;;;1.80;;
11151;SDS011;5630;49.342;10.802;2022-09-09T07:23:42;5.07;;;1.60;;
11151;SDS011;5630;49.342;10.802;2022-09-09T07:26:18;5.13;;;1.40;;
11151;SDS011;5630;49.342;10.802;2022-09-09T07:28:46;2.87;;;1.40;;
11151;SDS011;5630;49.342;10.802;2022-09-09T07:31:19;7.17;;;1.40;;
11151;SDS011;5630;49.342;10.802;2022-09-09T07:33:50;4.97;;;1.40;;
11151;SDS011;5630;49.342;10.802;2022-09-09T07:36:17;5.17;;;1.73;;
11151;SDS011;5630;49.342;10.802;2022-09-09T07:38:46;3.10;;;1.53;;
11151;SDS011;5630;49.342;10.802;2022-09-09T07:41:18;5.70;;;1.23;;
11151;SDS011;5630;49.342;10.802;2022-09-09T07:43:46;9.83;;;1.90;;
11151;SDS011;5630;49.342;10.802;2022-09-09T07:46:14;3.90;;;1.33;;
11151;SDS011;5630;49.342;10.802;2022-09-09T07:48:44;6.53;;;1.20;;
11151;SDS011;5630;49.342;10.802;2022-09-09T07:51:12;6.27;;;1.33;;
11151;SDS011;5630;49.342;10.802;2022-09-09T07:53:44;1.77;;;1.13;;
11151;SDS011;5630;49.342;10.802;2022-09-09T07:56:14;3.40;;;1.20;;
11151;SDS011;5630;49.342;10.802;2022-09-09T07:58:42;3.17;;;1.40;;
11151;SDS011;5630;49.342;10.802;2022-09-09T08:01:12;8.07;;;1.20;;
11151;SDS011;5630;49.342;10.802;2022-09-09T08:03:39;4.80;;;1.53;;
11151;SDS011;5630;49.342;10.802;2022-09-09T08:06:06;4.67;;;1.40;;
11151;SDS011;5630;49.342;10.802;2022-09-09T08:08:34;4.07;;;1.80;;
11151;SDS011;5630;49.342;10.802;2022-09-09T08:11:22;12.40;;;2.80;;
11151;SDS011;5630;49.342;10.802;2022-09-09T08:13:48;5.50;;;2.30;;
11151;SDS011;5630;49.342;10.802;2022-09-09T08:16:15;7.60;;;2.33;;
11151;SDS011;5630;49.342;10.802;2022-09-09T08:18:43;15.00;;;2.33;;
11151;SDS011;5630;49.342;10.802;2022-09-09T08:21:13;7.23;;;1.50;;
11151;SDS011;5630;49.342;10.802;2022-09-09T08:23:42;7.00;;;1.50;;
11151;SDS011;5630;49.342;10.802;2022-09-09T08:26:20;3.70;;;1.43;;
11151;SDS011;5630;49.342;10.802;2022-09-09T08:28:48;3.80;;;1.20;;
11151;SDS011;5630;49.342;10.802;2022-09-09T08:31:17;1.83;;;1.00;;
11151;SDS011;5630;49.342;10.802;2022-09-09T08:33:47;3.93;;;1.10;;
11151;SDS011;5630;49.342;10.802;2022-09-09T08:36:15;3.53;;;1.33;;
11151;SDS011;5630;49.342;10.802;2022-09-09T08:38:48;3.80;;;1.20;;
11151;SDS011;5630;49.342;10.802;2022-09-09T08:41:29;3.43;;;1.10;;
11151;SDS011;5630;49.342;10.802;2022-09-09T08:44:22;5.13;;;1.57;;
11151;SDS011;5630;49.342;10.802;2022-09-09T08:54:58;3.63;;;1.00;;
11151;SDS011;5630;49.342;10.802;2022-09-09T08:57:40;5.83;;;1.30;;
11151;SDS011;5630;49.342;10.802;2022-09-09T09:00:07;2.17;;;1.10;;
11151;SDS011;5630;49.342;10.802;2022-09-09T09:02:42;6.07;;;1.20;;
11151;SDS011;5630;49.342;10.802;2022-09-09T09:10:56;3.30;;;1.00;;
11151;SDS011;5630;49.342;10.802;2022-09-09T09:13:28;2.73;;;1.30;;
11151;SDS011;5630;49.342;10.802;2022-09-09T09:16:20;3.07;;;1.30;;
11151;SDS011;5630;49.342;10.802;2022-09-09T09:18:59;2.93;;;1.10;;
11151;SDS011;5630;49.342;10.802;2022-09-09T09:23:59;3.13;;;1.30;;
11151;SDS011;5630;49.342;10.802;2022-09-09T09:26:29;3.03;;;1.50;;
11151;SDS011;5630;49.342;10.802;2022-09-09T09:28:57;6.00;;;1.67;;
11151;SDS011;5630;49.342;10.802;2022-09-09T09:31:25;3.80;;;1.30;;
11151;SDS011;5630;49.342;10.802;2022-09-09T09:33:54;2.37;;;1.10;;
11151;SDS011;5630;49.342;10.802;2022-09-09T09:36:24;3.30;;;1.10;;
11151;SDS011;5630;49.342;10.802;2022-09-09T09:39:01;4.67;;;1.40;;
11151;SDS011;5630;49.342;10.802;2022-09-09T09:44:02;5.00;;;1.53;;
11151;SDS011;5630;49.342;10.802;2022-09-09T09:46:28;5.10;;;1.27;;
11151;SDS011;5630;49.342;10.802;2022-09-09T09:49:01;3.83;;;1.40;;
11151;SDS011;5630;49.342;10.802;2022-09-09T09:51:29;1.80;;;1.10;;
11151;SDS011;5630;49.342;10.802;2022-09-09T09:54:31;7.53;;;1.50;;
11151;SDS011;5630;49.342;10.802;2022-09-09T09:56:53;3.70;;;1.50;;
11151;SDS011;5630;49.342;10.802;2022-09-09T09:59:20;6.63;;;1.83;;
11151;SDS011;5630;49.342;10.802;2022-09-09T10:04:39;3.73;;;1.40;;
11151;SDS011;5630;49.342;10.802;2022-09-09T10:07:20;4.20;;;1.50;;
11151;SDS011;5630;49.342;10.802;2022-09-09T10:09:53;5.33;;;1.27;;
11151;SDS011;5630;49.342;10.802;2022-09-09T10:22:35;5.43;;;1.57;;
11151;SDS011;5630;49.342;10.802;2022-09-09T10:25:12;3.63;;;1.40;;
11151;SDS011;5630;49.342;10.802;2022-09-09T10:28:07;2.93;;;1.10;;
11151;SDS011;5630;49.342;10.802;2022-09-09T10:36:20;3.63;;;1.30;;
11151;SDS011;5630;49.342;10.802;2022-09-09T10:38:52;3.07;;;1.40;;
11151;SDS011;5630;49.342;10.802;2022-09-09T10:44:03;6.00;;;1.33;;
11151;SDS011;5630;49.342;10.802;2022-09-09T10:49:15;4.00;;;1.27;;
11151;SDS011;5630;49.342;10.802;2022-09-09T10:51:54;4.27;;;1.30;;
11151;SDS011;5630;49.342;10.802;2022-09-09T10:57:25;4.57;;;1.10;;
11151;SDS011;5630;49.342;10.802;2022-09-09T10:59:57;4.50;;;1.30;;
11151;SDS011;5630;49.342;10.802;2022-09-09T11:02:28;4.97;;;1.13;;
11151;SDS011;5630;49.342;10.802;2022-09-09T11:07:46;6.60;;;1.40;;
11151;SDS011;5630;49.342;10.802;2022-09-09T11:10:42;4.90;;;1.57;;
11151;SDS011;5630;49.342;10.802;2022-09-09T11:18:42;3.37;;;1.33;;
11151;SDS011;5630;49.342;10.802;2022-09-09T11:21:16;3.07;;;1.10;;
11151;SDS011;5630;49.342;10.802;2022-09-09T11:23:50;5.50;;;1.50;;
11151;SDS011;5630;49.342;10.802;2022-09-09T11:26:28;3.80;;;1.13;;
11151;SDS011;5630;49.342;10.802;2022-09-09T11:31:39;2.23;;;1.13;;
11151;SDS011;5630;49.342;10.802;2022-09-09T11:34:42;6.03;;;1.40;;
11151;SDS011;5630;49.342;10.802;2022-09-09T11:40:24;2.83;;;1.30;;
11151;SDS011;5630;49.342;10.802;2022-09-09T11:43:02;5.90;;;1.50;;
11151;SDS011;5630;49.342;10.802;2022-09-09T11:45:30;4.90;;;1.40;;
11151;SDS011;5630;49.342;10.802;2022-09-09T11:47:59;4.17;;;1.30;;
11151;SDS011;5630;49.342;10.802;2022-09-09T11:53:14;6.30;;;1.37;;
11151;SDS011;5630;49.342;10.802;2022-09-09T11:55:45;3.57;;;1.43;;
11151;SDS011;5630;49.342;10.802;2022-09-09T12:00:40;3.20;;;1.40;;
11151;SDS011;5630;49.342;10.802;2022-09-09T12:06:07;2.73;;;1.47;;
11151;SDS011;5630;49.342;10.802;2022-09-09T12:09:06;4.53;;;1.43;;
11151;SDS011;5630;49.342;10.802;2022-09-09T12:11:45;3.20;;;1.27;;
11151;SDS011;5630;49.342;10.802;2022-09-09T12:14:35;3.27;;;1.40;;
11151;SDS011;5630;49.342;10.802;2022-09-09T12:19:39;3.80;;;1.30;;
11151;SDS011;5630;49.342;10.802;2022-09-09T12:28:17;4.57;;;1.40;;
11151;SDS011;5630;49.342;10.802;2022-09-09T12:33:24;2.83;;;1.33;;
11151;SDS011;5630;49.342;10.802;2022-09-09T12:35:56;3.23;;;1.17;;
11151;SDS011;5630;49.342;10.802;2022-09-09T12:38:29;6.33;;;1.50;;
11151;SDS011;5630;49.342;10.802;2022-09-09T12:40:59;8.77;;;1.53;;
11151;SDS011;5630;49.342;10.802;2022-09-09T12:43:25;7.13;;;1.20;;
11151;SDS011;5630;49.342;10.802;2022-09-09T12:45:54;3.77;;;1.20;;
11151;SDS011;5630;49.342;10.802;2022-09-09T12:48:30;3.90;;;1.30;;
11151;SDS011;5630;49.342;10.802;2022-09-09T12:50:59;5.50;;;1.40;;
11151;SDS011;5630;49.342;10.802;2022-09-09T12:53:44;4.30;;;1.07;;
11151;SDS011;5630;49.342;10.802;2022-09-09T12:56:17;1.60;;;0.87;;
11151;SDS011;5630;49.342;10.802;2022-09-09T12:58:46;4.47;;;1.00;;
11151;SDS011;5630;49.342;10.802;2022-09-09T13:01:23;4.57;;;1.20;;
11151;SDS011;5630;49.342;10.802;2022-09-09T13:03:51;2.50;;;1.00;;
11151;SDS011;5630;49.342;10.802;2022-09-09T13:06:27;2.27;;;1.00;;
11151;SDS011;5630;49.342;10.802;2022-09-09T13:08:56;5.70;;;1.10;;
11151;SDS011;5630;49.342;10.802;2022-09-09T13:14:03;1.33;;;0.73;;
11151;SDS011;5630;49.342;10.802;2022-09-09T13:16:31;3.53;;;0.90;;
11151;SDS011;5630;49.342;10.802;2022-09-09T13:19:00;2.83;;;0.70;;
11151;SDS011;5630;49.342;10.802;2022-09-09T13:21:32;2.00;;;0.87;;
11151;SDS011;5630;49.342;10.802;2022-09-09T13:23:59;3.00;;;1.00;;
11151;SDS011;5630;49.342;10.802;2022-09-09T13:26:28;9.03;;;1.20;;
11151;SDS011;5630;49.342;10.802;2022-09-09T13:28:55;3.87;;;1.10;;
11151;SDS011;5630;49.342;10.802;2022-09-09T13:31:33;5.43;;;0.90;;
11151;SDS011;5630;49.342;10.802;2022-09-09T13:34:14;3.97;;;0.80;;
11151;SDS011;5630;49.342;10.802;2022-09-09T13:36:52;1.37;;;0.90;;
11151;SDS011;5630;49.342;10.802;2022-09-09T13:39:21;5.57;;;1.03;;
11151;SDS011;5630;49.342;10.802;2022-09-09T13:41:46;8.17;;;1.00;;
11151;SDS011;5630;49.342;10.802;2022-09-09T13:44:30;3.53;;;1.13;;
11151;SDS011;5630;49.342;10.802;2022-09-09T13:47:06;1.20;;;0.90;;
11151;SDS011;5630;49.342;10.802;2022-09-09T13:49:44;5.17;;;1.20;;
11151;SDS011;5630;49.342;10.802;2022-09-09T13:52:11;3.50;;;1.40;;
11151;SDS011;5630;49.342;10.802;2022-09-09T13:54:38;6.73;;;1.40;;
11151;SDS011;5630;49.342;10.802;2022-09-09T13:57:05;3.87;;;1.10;;
11151;SDS011;5630;49.342;10.802;2022-09-09T13:59:38;2.43;;;1.30;;
11151;SDS011;5630;49.342;10.802;2022-09-09T14:02:04;3.07;;;1.00;;
11151;SDS011;5630;49.342;10.802;2022-09-09T14:04:30;6.77;;;1.20;;
11151;SDS011;5630;49.342;10.802;2022-09-09T14:06:55;4.90;;;1.50;;
11151;SDS011;5630;49.342;10.802;2022-09-09T14:09:21;4.17;;;1.20;;
11151;SDS011;5630;49.342;10.802;2022-09-09T14:11:47;5.67;;;1.40;;
11151;SDS011;5630;49.342;10.802;2022-09-09T14:14:12;5.73;;;1.20;;
11151;SDS011;5630;49.342;10.802;2022-09-09T14:16:38;6.77;;;1.20;;
11151;SDS011;5630;49.342;10.802;2022-09-09T14:19:03;3.57;;;1.27;;
11151;SDS011;5630;49.342;10.802;2022-09-09T14:21:29;7.43;;;1.43;;
11151;SDS011;5630;49.342;10.802;2022-09-09T14:23:55;4.43;;;1.40;;
11151;SDS011;5630;49.342;10.802;2022-09-09T14:26:23;4.83;;;1.23;;
11151;SDS011;5630;49.342;10.802;2022-09-09T14:28:49;5.40;;;1.23;;
11151;SDS011;5630;49.342;10.802;2022-09-09T14:31:15;4.10;;;1.27;;
11151;SDS011;5630;49.342;10.802;2022-09-09T14:33:42;4.00;;;1.20;;
11151;SDS011;5630;49.342;10.802;2022-09-09T14:36:08;3.70;;;1.07;;
11151;SDS011;5630;49.342;10.802;2022-09-09T14:38:35;2.77;;;1.07;;
11151;SDS011;5630;49.342;10.802;2022-09-09T14:41:04;1.90;;;0.80;;
11151;SDS011;5630;49.342;10.802;2022-09-09T14:43:41;3.13;;;0.87;;
11151;SDS011;5630;49.342;10.802;2022-09-09T14:46:08;0.90;;;0.67;;
11151;SDS011;5630;49.342;10.802;2022-09-09T14:48:35;3.03;;;0.83;;
11151;SDS011;5630;49.342;10.802;2022-09-09T14:51:20;2.50;;;1.00;;
11151;SDS011;5630;49.342;10.802;2022-09-09T14:53:50;1.27;;;0.80;;
11151;SDS011;5630;49.342;10.802;2022-09-09T14:56:19;3.47;;;0.90;;
11151;SDS011;5630;49.342;10.802;2022-09-09T14:58:46;1.77;;;0.80;;
11151;SDS011;5630;49.342;10.802;2022-09-09T15:01:14;3.23;;;0.80;;
11151;SDS011;5630;49.342;10.802;2022-09-09T15:03:41;2.43;;;0.83;;
11151;SDS011;5630;49.342;10.802;2022-09-09T15:06:13;2.17;;;0.80;;
11151;SDS011;5630;49.342;10.802;2022-09-09T15:08:42;1.63;;;0.70;;
11151;SDS011;5630;49.342;10.802;2022-09-09T15:11:10;3.50;;;0.80;;
11151;SDS011;5630;49.342;10.802;2022-09-09T15:13:37;3.30;;;0.90;;
11151;SDS011;5630;49.342;10.802;2022-09-09T15:16:07;2.17;;;0.70;;
11151;SDS011;5630;49.342;10.802;2022-09-09T15:18:38;1.63;;;0.80;;
11151;SDS011;5630;49.342;10.802;2022-09-09T15:21:10;0.70;;;0.70;;
11151;SDS011;5630;49.342;10.802;2022-09-09T15:23:36;2.50;;;0.80;;
11151;SDS011;5630;49.342;10.802;2022-09-09T15:26:03;2.10;;;0.90;;
11151;SDS011;5630;49.342;10.802;2022-09-09T15:28:29;4.93;;;0.83;;
11151;SDS011;5630;49.342;10.802;2022-09-09T15:30:57;4.07;;;1.10;;
11151;SDS011;5630;49.342;10.802;2022-09-09T15:33:31;4.17;;;0.83;;
11151;SDS011;5630;49.342;10.802;2022-09-09T15:35:56;3.80;;;0.73;;
11151;SDS011;5630;49.342;10.802;2022-09-09T15:38:22;2.10;;;0.93;;
11151;SDS011;5630;49.342;10.802;2022-09-09T15:40:52;1.27;;;0.90;;
11151;SDS011;5630;49.342;10.802;2022-09-09T15:43:21;1.30;;;0.80;;
11151;SDS011;5630;49.342;10.802;2022-09-09T15:45:49;1.27;;;0.70;;
11151;SDS011;5630;49.342;10.802;2022-09-09T15:48:23;2.87;;;0.87;;
11151;SDS011;5630;49.342;10.802;2022-09-09T15:51:03;1.43;;;0.70;;
11151;SDS011;5630;49.342;10.802;2022-09-09T15:53:30;1.07;;;0.80;;
11151;SDS011;5630;49.342;10.802;2022-09-09T15:55:57;2.63;;;1.30;;
11151;SDS011;5630;49.342;10.802;2022-09-09T15:58:23;3.63;;;1.40;;
11151;SDS011;5630;49.342;10.802;2022-09-09T16:00:48;2.27;;;1.10;;
11151;SDS011;5630;49.342;10.802;2022-09-09T16:03:14;2.37;;;0.90;;
11151;SDS011;5630;49.342;10.802;2022-09-09T16:05:40;1.63;;;1.00;;
11151;SDS011;5630;49.342;10.802;2022-09-09T16:08:06;1.67;;;0.83;;
11151;SDS011;5630;49.342;10.802;2022-09-09T16:10:31;1.73;;;0.83;;
11151;SDS011;5630;49.342;10.802;2022-09-09T16:12:57;1.83;;;1.10;;
11151;SDS011;5630;49.342;10.802;2022-09-09T16:15:23;2.13;;;1.30;;
11151;SDS011;5630;49.342;10.802;2022-09-09T16:17:52;3.73;;;1.30;;
11151;SDS011;5630;49.342;10.802;2022-09-09T16:20:18;4.60;;;1.03;;
11151;SDS011;5630;49.342;10.802;2022-09-09T16:22:45;3.20;;;1.10;;
11151;SDS011;5630;49.342;10.802;2022-09-09T16:25:10;2.67;;;1.03;;
11151;SDS011;5630;49.342;10.802;2022-09-09T16:27:36;1.70;;;0.80;;
11151;SDS011;5630;49.342;10.802;2022-09-09T16:30:02;1.33;;;0.80;;
11151;SDS011;5630;49.342;10.802;2022-09-09T16:32:28;2.43;;;1.10;;
11151;SDS011;5630;49.342;10.802;2022-09-09T16:34:53;2.17;;;0.80;;
11151;SDS011;5630;49.342;10.802;2022-09-09T16:37:19;2.13;;;0.90;;
11151;SDS011;5630;49.342;10.802;2022-09-09T16:39:44;3.23;;;1.20;;
11151;SDS011;5630;49.342;10.802;2022-09-09T16:42:10;3.23;;;1.00;;
11151;SDS011;5630;49.342;10.802;2022-09-09T16:44:36;2.07;;;0.80;;
11151;SDS011;5630;49.342;10.802;2022-09-09T16:47:01;2.83;;;1.00;;
11151;SDS011;5630;49.342;10.802;2022-09-09T16:49:27;2.50;;;0.80;;
11151;SDS011;5630;49.342;10.802;2022-09-09T16:51:57;3.90;;;1.10;;
11151;SDS011;5630;49.342;10.802;2022-09-09T16:54:23;2.10;;;0.90;;
11151;SDS011;5630;49.342;10.802;2022-09-09T16:56:50;2.83;;;1.10;;
11151;SDS011;5630;49.342;10.802;2022-09-09T16:59:16;3.63;;;1.30;;
11151;SDS011;5630;49.342;10.802;2022-09-09T17:01:44;4.70;;;1.20;;
11151;SDS011;5630;49.342;10.802;2022-09-09T17:04:13;3.37;;;1.07;;
11151;SDS011;5630;49.342;10.802;2022-09-09T17:06:45;3.27;;;1.00;;
11151;SDS011;5630;49.342;10.802;2022-09-09T17:09:12;1.87;;;1.00;;
11151;SDS011;5630;49.342;10.802;2022-09-09T17:11:38;3.40;;;1.20;;
11151;SDS011;5630;49.342;10.802;2022-09-09T17:14:05;4.87;;;1.20;;
11151;SDS011;5630;49.342;10.802;2022-09-09T17:16:32;2.33;;;1.03;;
11151;SDS011;5630;49.342;10.802;2022-09-09T17:19:02;4.17;;;1.10;;
11151;SDS011;5630;49.342;10.802;2022-09-09T17:21:28;2.83;;;1.10;;
11151;SDS011;5630;49.342;10.802;2022-09-09T17:23:55;7.83;;;1.27;;